首页
METAR-TAF:

METAR-TAF

机场 :

新山一國際機場

胡志明, 越南

纬度: 10-49N, 经度: 106-40E, 海拔: 19米

当前天气观测

该预报发布于26分钟前的17:30 UTC
风速5节,风向南转西南
温度 28°C
湿度 84%
气压 1008 hPa
能见度10公里或以上
少量云层高于1700英尺
散云层高于5000英尺

METAR: VVTS 231730Z 21005KT 9999 FEW017 SCT050 28/25 Q1008 NOSIG

时间: 00:56 (17:56 UTC)

预报

该预报发布于56分钟前的17:00 UTC
预报有效从23日的 18点(UTC)到 24日的 24点(UTC)
风速6节,风向西转西南
能见度10公里或以上
少量云层高于1700英尺
散云层高于4000英尺
短暂存在
从 24日的 07点(UTC)到 24日的 11点(UTC)
散云层高于1500英尺
少量云层高于1700英尺, 积雨云.
雷暴

TAF: VVTS 231700Z 2318/2424 24006KT 9999 FEW017 SCT040 TEMPO 2407/2411 TS SCT015 FEW017CB

超过4000个机场的气象观测和天气预报(METAR&TAF报告)。

可查询的气象台以黄色和红色小点在地图上表示。

将鼠标移到小点上方,可查看气象台名称。

然后点击查看天气观测和预报。

如需切换地图:点击带黑十字的绿色按钮放大地图;点击带横线的绿色按钮缩小地图;或者点击绿色箭头查看邻近地区的地图。


METAR-TAF: